Time;durP1;ratioP1;P1;durP2;ratioP2;P2;SDS_P1;SDS_P2;PMS_P1;PMS_P2;Temp;Humidity;BMP_temperature;BMP_pressure;BME280_temperature;BME280_humidity;BME280_pressure;Samples;Min_cycle;Max_cycle;Signal;HPM_P1;HPM_P2
2023/09/28 00:01:35;;;;;;;7.07;3.63;;;21.20;99.90;;;;;;4246770;28;20120;-54
2023/09/28 00:03:38;;;;;;;11.77;4.15;;;21.20;99.90;;;;;;4247038;28;20092;-55
2023/09/28 00:05:40;;;;;;;10.80;4.53;;;21.20;99.90;;;;;;4246664;28;20043;-54
2023/09/28 00:07:43;;;;;;;9.43;3.83;;;21.10;99.90;;;;;;4247148;28;20103;-54
2023/09/28 00:09:47;;;;;;;16.67;3.80;;;21.10;99.90;;;;;;4247740;27;20043;-55
2023/09/28 00:11:49;;;;;;;8.23;4.30;;;21.10;99.90;;;;;;4250247;27;20108;-52
2023/09/28 00:13:51;;;;;;;9.43;4.45;;;21.10;99.90;;;;;;4250425;27;20446;-52
2023/09/28 00:15:54;;;;;;;12.07;4.75;;;21.10;99.90;;;;;;4231743;28;20110;-51
2023/09/28 00:17:56;;;;;;;9.63;4.50;;;21.00;99.90;;;;;;4247129;27;20050;-51
2023/09/28 00:19:58;;;;;;;9.40;4.55;;;21.10;99.90;;;;;;4250128;27;20484;-51
2023/09/28 00:22:00;;;;;;;10.52;4.38;;;21.00;99.90;;;;;;4249853;27;20110;-52
2023/09/28 00:24:03;;;;;;;10.05;4.45;;;21.00;99.90;;;;;;4249970;27;20053;-52
2023/09/28 00:26:07;;;;;;;9.02;4.00;;;21.00;99.90;;;;;;4250025;27;20071;-51
2023/09/28 00:28:09;;;;;;;10.17;5.23;;;20.90;99.90;;;;;;4249829;27;20043;-52
2023/09/28 00:30:22;;;;;;;8.98;3.80;;;20.90;99.90;;;;;;4249724;27;20047;-51
2023/09/28 00:32:24;;;;;;;9.05;4.40;;;20.90;99.90;;;;;;4249811;27;20043;-52
2023/09/28 00:34:26;;;;;;;10.65;4.65;;;20.90;99.90;;;;;;4249981;27;20484;-51
2023/09/28 00:36:28;;;;;;;15.85;4.80;;;20.90;99.90;;;;;;4249603;27;20111;-52
2023/09/28 00:38:30;;;;;;;8.57;3.78;;;20.80;99.90;;;;;;4249511;27;20142;-52
2023/09/28 00:40:33;;;;;;;11.55;4.20;;;20.80;99.90;;;;;;4249799;27;20043;-52
2023/09/28 00:42:36;;;;;;;9.40;4.18;;;20.80;99.90;;;;;;4249551;27;20507;-52
2023/09/28 00:44:38;;;;;;;13.13;4.57;;;20.80;99.90;;;;;;4231459;28;20048;-52
2023/09/28 00:46:42;;;;;;;9.40;4.47;;;20.80;99.90;;;;;;4249772;27;20430;-52
2023/09/28 00:48:57;;;;;;;9.55;4.45;;;20.80;99.90;;;;;;4249896;27;20047;-51
2023/09/28 00:51:00;;;;;;;10.38;3.88;;;20.80;99.90;;;;;;4249455;27;20055;-54
2023/09/28 00:53:08;;;;;;;9.80;4.10;;;20.80;99.90;;;;;;4249849;27;20176;-52
2023/09/28 00:55:11;;;;;;;11.93;3.80;;;20.80;99.90;;;;;;4249990;27;20087;-57
2023/09/28 00:57:14;;;;;;;6.45;3.67;;;20.80;99.90;;;;;;4231826;28;20535;-57
2023/09/28 00:59:18;;;;;;;10.52;3.70;;;20.80;99.90;;;;;;4250001;27;20039;-52
2023/09/28 01:01:20;;;;;;;14.45;4.00;;;20.80;99.90;;;;;;4249324;27;20057;-51
2023/09/28 01:03:23;;;;;;;15.48;4.32;;;20.90;99.90;;;;;;4249101;27;20053;-52
2023/09/28 01:05:27;;;;;;;7.90;3.45;;;20.80;99.90;;;;;;4249148;27;20054;-52
2023/09/28 01:07:30;;;;;;;8.27;3.50;;;20.80;99.90;;;;;;4231016;28;20039;-52
2023/09/28 01:09:32;;;;;;;7.88;3.72;;;20.80;99.90;;;;;;4249292;27;20481;-51
2023/09/28 01:11:34;;;;;;;10.68;3.65;;;20.80;99.90;;;;;;4231187;28;20473;-52
2023/09/28 01:13:39;;;;;;;9.48;3.70;;;20.80;99.90;;;;;;4249355;27;20051;-52
2023/09/28 01:15:43;;;;;;;8.65;3.63;;;20.80;99.90;;;;;;4249305;27;20043;-53
2023/09/28 01:17:45;;;;;;;8.40;3.47;;;20.70;99.90;;;;;;4244594;27;20099;-52
2023/09/28 01:19:47;;;;;;;7.75;3.40;;;20.70;99.90;;;;;;4230644;28;20052;-51
2023/09/28 01:21:51;;;;;;;8.18;3.53;;;20.60;99.90;;;;;;4248761;27;20092;-57
2023/09/28 01:23:54;;;;;;;13.20;3.75;;;20.70;99.90;;;;;;4249413;27;20043;-54
2023/09/28 01:25:57;;;;;;;7.80;3.70;;;20.70;99.90;;;;;;4249723;27;20047;-55
2023/09/28 01:28:00;;;;;;;12.27;3.65;;;20.60;99.90;;;;;;4249080;27;20039;-55
2023/09/28 01:30:03;;;;;;;8.13;3.55;;;20.60;99.90;;;;;;4249071;27;20043;-54
2023/09/28 01:32:06;;;;;;;8.30;2.78;;;20.50;99.90;;;;;;4248864;27;20492;-56
2023/09/28 01:34:09;;;;;;;5.65;3.30;;;20.60;99.90;;;;;;4248609;27;20047;-54
2023/09/28 01:36:11;;;;;;;7.82;3.67;;;20.60;99.90;;;;;;4249025;27;20055;-54
2023/09/28 01:38:18;;;;;;;6.07;2.90;;;20.60;99.90;;;;;;4248651;27;20043;-56
2023/09/28 01:40:22;;;;;;;6.38;2.88;;;20.50;99.90;;;;;;4248745;27;20130;-55
2023/09/28 01:42:24;;;;;;;8.25;3.53;;;20.60;99.90;;;;;;4248490;27;20122;-54
2023/09/28 01:44:26;;;;;;;8.60;3.75;;;20.50;99.90;;;;;;4248425;27;20039;-64
2023/09/28 01:46:28;;;;;;;8.77;3.30;;;20.50;99.90;;;;;;4248600;27;20047;-55
2023/09/28 01:48:30;;;;;;;7.05;3.22;;;20.50;99.90;;;;;;4248153;27;20116;-54
2023/09/28 01:50:32;;;;;;;10.70;3.70;;;20.50;99.90;;;;;;4248416;27;20051;-55
2023/09/28 01:52:35;;;;;;;8.68;3.35;;;20.50;99.90;;;;;;4248423;27;20524;-55
2023/09/28 01:54:37;;;;;;;7.03;3.28;;;20.50;99.90;;;;;;4248555;27;20039;-55
2023/09/28 01:56:40;;;;;;;6.05;2.85;;;20.50;99.90;;;;;;4248410;27;20126;-54
2023/09/28 01:58:42;;;;;;;8.07;3.28;;;20.50;99.90;;;;;;4248754;27;20081;-55
2023/09/28 02:00:46;;;;;;;10.80;3.05;;;20.60;99.90;;;;;;4248300;27;20043;-53
2023/09/28 02:02:50;;;;;;;8.85;3.28;;;20.60;99.90;;;;;;4247636;27;20100;-52
2023/09/28 02:04:52;;;;;;;6.68;3.40;;;20.60;99.90;;;;;;4230238;28;20043;-52
2023/09/28 02:06:54;;;;;;;8.95;3.58;;;20.60;99.90;;;;;;4248498;27;20043;-53
2023/09/28 02:08:56;;;;;;;7.10;3.30;;;20.60;99.90;;;;;;4248038;27;20053;-52
2023/09/28 02:10:58;;;;;;;8.77;3.00;;;20.60;99.90;;;;;;4248006;27;20048;-53
2023/09/28 02:13:04;;;;;;;10.48;3.50;;;20.70;99.90;;;;;;4248348;27;20043;-52
2023/09/28 02:15:09;;;;;;;7.57;3.50;;;20.60;99.90;;;;;;4247937;27;20051;-51
2023/09/28 02:17:11;;;;;;;7.78;2.80;;;20.60;99.90;;;;;;4247655;27;20130;-55
2023/09/28 02:19:14;;;;;;;6.90;3.17;;;20.60;99.90;;;;;;4247843;27;20051;-54
2023/09/28 02:21:16;;;;;;;6.20;3.55;;;20.60;99.90;;;;;;4248110;27;20458;-54
2023/09/28 02:23:18;;;;;;;6.57;3.00;;;20.50;99.90;;;;;;4247786;27;20082;-55
2023/09/28 02:25:22;;;;;;;11.80;3.35;;;20.50;99.90;;;;;;4248033;27;20058;-54
2023/09/28 02:27:25;;;;;;;9.07;3.10;;;20.50;99.90;;;;;;4248106;27;20054;-54
2023/09/28 02:29:29;;;;;;;10.25;3.30;;;20.60;99.90;;;;;;4248100;27;20047;-55
2023/09/28 02:31:31;;;;;;;7.13;3.10;;;20.60;99.90;;;;;;4247536;27;20043;-54
2023/09/28 02:33:34;;;;;;;8.27;3.28;;;20.60;99.90;;;;;;4246882;27;20092;-54
2023/09/28 02:35:36;;;;;;;8.85;3.00;;;20.60;99.90;;;;;;4247880;27;20046;-55
2023/09/28 02:37:38;;;;;;;9.05;3.60;;;20.50;99.90;;;;;;4247619;27;20050;-54
2023/09/28 02:39:41;;;;;;;8.55;3.90;;;20.60;99.90;;;;;;4247615;27;20063;-54
2023/09/28 02:41:43;;;;;;;6.20;3.38;;;20.60;99.90;;;;;;4248016;27;20182;-54
2023/09/28 02:43:45;;;;;;;10.80;3.67;;;20.60;99.90;;;;;;4248524;27;20075;-54
2023/09/28 02:45:49;;;;;;;9.20;3.05;;;20.60;99.90;;;;;;4247429;27;20053;-55
2023/09/28 02:47:51;;;;;;;9.10;3.47;;;20.60;99.90;;;;;;4247585;27;20112;-56
2023/09/28 02:49:57;;;;;;;11.27;3.72;;;20.50;99.90;;;;;;4247650;27;20058;-54
2023/09/28 02:51:59;;;;;;;9.77;3.20;;;20.60;99.90;;;;;;4247473;27;20129;-56
2023/09/28 02:54:01;;;;;;;10.15;3.38;;;20.50;99.90;;;;;;4247406;27;20040;-55
2023/09/28 02:56:03;;;;;;;9.18;3.13;;;20.60;99.90;;;;;;4247640;27;20047;-54
2023/09/28 02:58:06;;;;;;;11.60;3.30;;;20.60;99.90;;;;;;4247388;27;20080;-54
2023/09/28 03:00:14;;;;;;;8.50;3.45;;;20.50;99.90;;;;;;4246961;27;20126;-54
2023/09/28 03:02:17;;;;;;;13.48;4.28;;;20.50;99.90;;;;;;4247437;27;20043;-54
2023/09/28 03:04:19;;;;;;;12.73;3.50;;;20.50;99.90;;;;;;4247608;27;20062;-55
2023/09/28 03:06:21;;;;;;;8.75;3.40;;;20.50;99.90;;;;;;4247701;27;20039;-53
2023/09/28 03:08:24;;;;;;;11.43;4.22;;;20.40;99.90;;;;;;4247223;27;20050;-54
2023/09/28 03:10:26;;;;;;;9.38;3.30;;;20.40;99.90;;;;;;4247492;27;20043;-55
2023/09/28 03:12:31;;;;;;;7.65;3.22;;;20.40;99.90;;;;;;4247362;27;20043;-53
2023/09/28 03:14:34;;;;;;;7.90;3.63;;;20.30;99.90;;;;;;4247342;28;20126;-55
2023/09/28 03:16:36;;;;;;;11.70;3.22;;;20.40;99.90;;;;;;4247347;28;20466;-54
2023/09/28 03:18:39;;;;;;;8.50;3.25;;;20.40;99.90;;;;;;4247175;28;20061;-54
2023/09/28 03:20:43;;;;;;;12.65;3.83;;;20.40;99.90;;;;;;4247326;28;20073;-54
2023/09/28 03:22:47;;;;;;;13.13;3.33;;;20.40;99.90;;;;;;4229051;28;20429;-54
2023/09/28 03:24:50;;;;;;;11.73;3.70;;;20.40;99.90;;;;;;4247314;28;20126;-54
2023/09/28 03:26:52;;;;;;;12.63;3.83;;;20.30;99.90;;;;;;4247474;28;20131;-55
2023/09/28 03:29:10;;;;;;;20.33;4.03;;;20.30;99.90;;;;;;4247081;28;20450;-54
2023/09/28 03:31:12;;;;;;;16.48;4.63;;;20.20;99.10;;;;;;4247141;28;20492;-52
2023/09/28 03:33:14;;;;;;;15.10;4.18;;;20.20;98.60;;;;;;4246995;28;20405;-52
2023/09/28 03:35:19;;;;;;;15.50;4.38;;;20.10;97.60;;;;;;4247256;28;20127;-51
2023/09/28 03:37:22;;;;;;;;;;;19.90;97.10;;;;;;4229545;28;20686;-53
2023/09/28 03:39:24;;;;;;;15.90;4.18;;;19.90;96.40;;;;;;4247053;28;20002;-52
2023/09/28 03:41:27;;;;;;;14.48;4.13;;;19.90;96.80;;;;;;4247075;28;20498;-53
2023/09/28 03:43:29;;;;;;;18.38;4.13;;;19.80;96.60;;;;;;4246657;28;20142;-51
2023/09/28 03:45:31;;;;;;;19.48;4.30;;;19.90;96.60;;;;;;4249028;27;20417;-51
2023/09/28 03:47:33;;;;;;;21.45;4.32;;;19.90;96.20;;;;;;4250505;27;20043;-52
2023/09/28 03:49:37;;;;;;;18.67;5.03;;;19.80;95.90;;;;;;4250632;27;20504;-51
2023/09/28 03:51:40;;;;;;;17.90;4.78;;;19.70;95.70;;;;;;4250425;27;20053;-56
2023/09/28 03:53:42;;;;;;;20.85;4.85;;;19.70;95.70;;;;;;4250628;27;20545;-51
2023/09/28 03:55:46;;;;;;;17.75;4.18;;;19.70;95.60;;;;;;4250464;27;20050;-51
2023/09/28 03:57:49;;;;;;;21.48;5.40;;;19.70;95.80;;;;;;4249980;27;20099;-50
2023/09/28 03:59:51;;;;;;;21.50;4.80;;;19.60;95.80;;;;;;4232052;28;20050;-51
2023/09/28 04:01:53;;;;;;;19.27;4.35;;;19.70;95.80;;;;;;4250481;27;20043;-52
2023/09/28 04:03:55;;;;;;;24.13;5.65;;;19.60;95.70;;;;;;4250279;27;20043;-52
2023/09/28 04:05:57;;;;;;;20.65;5.18;;;19.60;95.50;;;;;;4250512;27;20063;-51
2023/09/28 04:08:01;;;;;;;18.52;4.45;;;19.60;95.60;;;;;;4250449;27;20062;-52
2023/09/28 04:10:04;;;;;;;18.90;5.15;;;19.60;95.70;;;;;;4250356;27;20104;-50
2023/09/28 04:12:06;;;;;;;16.40;4.15;;;19.60;95.80;;;;;;4250003;27;20469;-52
2023/09/28 04:14:08;;;;;;;13.50;4.20;;;19.50;95.70;;;;;;4250181;27;20066;-52
2023/09/28 04:16:10;;;;;;;19.75;4.53;;;19.50;95.90;;;;;;4250211;27;20556;-51
2023/09/28 04:18:14;;;;;;;14.15;3.38;;;19.50;96.00;;;;;;4250188;27;20122;-51
2023/09/28 04:20:16;;;;;;;24.38;5.15;;;19.50;96.20;;;;;;4249943;27;20503;-50
2023/09/28 04:22:23;;;;;;;22.10;5.20;;;19.60;95.80;;;;;;4250089;27;20070;-52
2023/09/28 04:24:27;;;;;;;16.20;4.68;;;19.50;95.60;;;;;;4250144;27;20073;-52
2023/09/28 04:26:29;;;;;;;22.80;5.78;;;19.50;95.90;;;;;;4250252;27;20059;-53
2023/09/28 04:28:32;;;;;;;19.80;5.07;;;19.50;96.00;;;;;;4251330;27;20043;-55
2023/09/28 04:30:34;;;;;;;21.23;5.53;;;19.50;96.00;;;;;;4250669;27;20051;-54
2023/09/28 04:32:36;;;;;;;17.35;4.72;;;19.50;95.90;;;;;;4249898;27;20043;-55
2023/09/28 04:34:39;;;;;;;16.10;3.83;;;19.50;96.00;;;;;;4249807;27;20123;-52
2023/09/28 04:36:41;;;;;;;23.52;5.40;;;19.50;96.30;;;;;;4249737;27;20477;-52
2023/09/28 04:38:43;;;;;;;18.45;4.65;;;19.50;96.10;;;;;;4249779;27;20058;-52
2023/09/28 04:40:46;;;;;;;18.92;5.43;;;19.50;96.10;;;;;;4249947;27;20133;-52
2023/09/28 04:42:48;;;;;;;24.92;5.15;;;19.50;96.10;;;;;;4230976;28;20044;-52
2023/09/28 04:44:50;;;;;;;22.35;5.90;;;19.50;96.10;;;;;;4249615;27;20047;-52
2023/09/28 04:46:52;;;;;;;19.67;5.10;;;19.60;95.90;;;;;;4231642;28;20452;-52
2023/09/28 04:48:55;;;;;;;19.98;5.10;;;19.60;96.10;;;;;;4249507;27;20409;-52
2023/09/28 04:50:57;;;;;;;21.50;4.97;;;19.50;96.30;;;;;;4249255;27;20051;-52
2023/09/28 04:52:59;;;;;;;22.40;5.30;;;19.50;96.20;;;;;;4249409;27;20051;-53
2023/09/28 04:55:01;;;;;;;21.92;5.10;;;19.50;96.50;;;;;;4249699;27;20434;-54
2023/09/28 04:57:07;;;;;;;23.73;5.47;;;19.50;96.10;;;;;;4230135;28;20046;-53
2023/09/28 04:59:10;;;;;;;21.90;5.45;;;19.50;96.00;;;;;;4249273;27;20047;-55
2023/09/28 05:01:12;;;;;;;21.25;4.38;;;19.40;96.10;;;;;;4249737;27;20404;-54
2023/09/28 05:03:14;;;;;;;23.77;5.53;;;19.40;96.30;;;;;;4231279;28;20063;-53
2023/09/28 05:05:17;;;;;;;20.50;5.07;;;19.40;96.20;;;;;;4249947;27;20503;-52
2023/09/28 05:07:19;;;;;;;22.85;5.53;;;19.40;96.20;;;;;;4249402;27;20104;-54
2023/09/28 05:09:21;;;;;;;30.23;5.05;;;19.40;96.00;;;;;;4249308;27;20055;-54
2023/09/28 05:11:23;;;;;;;22.65;4.68;;;19.40;96.20;;;;;;4248863;27;20058;-54
2023/09/28 05:13:29;;;;;;;20.02;4.63;;;19.40;96.50;;;;;;4248930;27;20416;-54
2023/09/28 05:15:32;;;;;;;18.38;5.05;;;19.40;96.30;;;;;;4249091;27;20059;-53
2023/09/28 05:17:34;;;;;;;20.08;5.88;;;19.40;96.50;;;;;;4248969;27;20047;-55
2023/09/28 05:19:36;;;;;;;22.33;5.38;;;19.30;96.20;;;;;;4249135;27;20071;-55
2023/09/28 05:21:38;;;;;;;22.45;5.82;;;19.30;96.50;;;;;;4249007;27;20071;-54
2023/09/28 05:23:42;;;;;;;16.77;4.70;;;19.30;96.60;;;;;;4248888;27;20100;-55
2023/09/28 05:25:44;;;;;;;18.27;4.85;;;19.30;96.90;;;;;;4248604;27;20043;-54
2023/09/28 05:27:46;;;;;;;17.33;5.03;;;19.30;96.70;;;;;;4248924;27;20043;-54
2023/09/28 05:29:50;;;;;;;20.05;5.28;;;19.30;96.90;;;;;;4249147;27;20047;-54
2023/09/28 05:31:52;;;;;;;20.50;4.88;;;19.30;96.90;;;;;;4248963;27;20130;-54
2023/09/28 05:33:54;;;;;;;22.60;4.80;;;19.20;96.70;;;;;;4248756;27;20523;-54
2023/09/28 05:35:56;;;;;;;27.27;5.95;;;19.20;96.80;;;;;;4248853;27;20095;-55
2023/09/28 05:37:59;;;;;;;25.42;4.88;;;19.20;96.80;;;;;;4248656;27;20080;-52
2023/09/28 05:40:02;;;;;;;20.55;4.85;;;19.20;96.80;;;;;;4248414;27;20046;-54
2023/09/28 05:42:04;;;;;;;25.35;5.68;;;19.20;96.90;;;;;;4248515;27;20099;-54
2023/09/28 05:44:07;;;;;;;21.13;5.28;;;19.20;96.70;;;;;;4248518;27;20043;-53
2023/09/28 05:46:14;;;;;;;19.27;4.13;;;19.20;96.80;;;;;;4248707;27;20484;-54
2023/09/28 05:48:17;;;;;;;22.27;4.78;;;19.20;96.80;;;;;;4248846;27;20044;-54
2023/09/28 05:50:19;;;;;;;22.92;5.15;;;19.20;96.80;;;;;;4248509;27;20130;-54
2023/09/28 05:52:22;;;;;;;20.92;4.63;;;19.20;96.90;;;;;;4248325;27;20118;-54
2023/09/28 05:54:26;;;;;;;16.92;4.47;;;19.20;97.00;;;;;;4248379;27;20039;-52
2023/09/28 05:56:28;;;;;;;18.67;4.60;;;19.10;97.30;;;;;;4248449;27;20046;-52
2023/09/28 05:58:30;;;;;;;24.02;5.45;;;19.10;97.20;;;;;;4248602;27;20107;-52
2023/09/28 06:00:32;;;;;;;23.92;5.93;;;19.10;97.30;;;;;;4248515;27;20047;-52
2023/09/28 06:02:36;;;;;;;25.60;5.75;;;19.00;97.20;;;;;;4248376;27;20071;-52
2023/09/28 06:04:38;;;;;;;24.10;4.93;;;19.00;97.10;;;;;;4248033;27;20039;-52
2023/09/28 06:06:40;;;;;;;19.55;5.03;;;19.00;97.10;;;;;;4248540;27;20051;-51
2023/09/28 06:08:43;;;;;;;21.63;4.82;;;19.00;96.90;;;;;;4247863;27;20134;-55
2023/09/28 06:10:48;;;;;;;25.77;5.03;;;19.00;97.00;;;;;;4248137;27;20100;-54
2023/09/28 06:12:52;;;;;;;24.90;4.72;;;19.00;96.60;;;;;;4248061;27;20074;-55
2023/09/28 06:14:54;;;;;;;19.90;4.30;;;19.00;96.70;;;;;;4248978;27;20049;-55
2023/09/28 06:16:56;;;;;;;22.98;4.65;;;19.00;96.70;;;;;;4248558;27;20480;-54
2023/09/28 06:18:59;;;;;;;22.52;4.57;;;19.00;96.80;;;;;;4248020;27;20058;-55
2023/09/28 06:21:01;;;;;;;24.23;5.40;;;18.90;96.80;;;;;;4248032;27;20062;-55
2023/09/28 06:23:04;;;;;;;22.38;5.32;;;19.00;96.60;;;;;;4247544;27;20043;-54
2023/09/28 06:25:08;;;;;;;22.15;4.55;;;18.90;96.60;;;;;;4248068;27;20464;-54
2023/09/28 06:27:10;;;;;;;18.73;5.35;;;18.90;96.90;;;;;;4247988;27;20126;-54
2023/09/28 06:29:12;;;;;;;24.38;4.57;;;18.90;96.90;;;;;;4247880;27;20047;-54
2023/09/28 06:31:18;;;;;;;20.27;4.57;;;18.90;96.80;;;;;;4248081;27;20043;-55
2023/09/28 06:33:21;;;;;;;21.15;4.43;;;18.80;96.90;;;;;;4247684;27;20480;-54
2023/09/28 06:35:24;;;;;;;22.05;5.30;;;18.80;96.90;;;;;;4247977;27;20047;-55
2023/09/28 06:37:27;;;;;;;18.92;4.32;;;18.80;97.00;;;;;;4247812;27;20453;-53
2023/09/28 06:39:29;;;;;;;19.65;4.65;;;18.80;97.50;;;;;;4247667;27;20039;-55
2023/09/28 06:41:31;;;;;;;17.77;4.40;;;18.80;97.20;;;;;;4247702;27;20067;-54
2023/09/28 06:43:35;;;;;;;15.15;4.20;;;18.80;97.40;;;;;;4247797;27;20115;-54
2023/09/28 06:45:37;;;;;;;19.08;4.30;;;18.80;97.80;;;;;;4247545;27;20382;-55
2023/09/28 06:47:39;;;;;;;22.45;4.88;;;18.80;97.60;;;;;;4247859;27;20115;-55
2023/09/28 06:49:44;;;;;;;;;;;18.80;97.50;;;;;;4247912;27;20408;-54
2023/09/28 06:51:48;;;;;;;16.50;4.70;;;18.80;97.30;;;;;;4247325;27;19919;-54
2023/09/28 06:53:50;;;;;;;;;;;18.80;97.50;;;;;;4248247;27;20487;-55
2023/09/28 06:55:54;;;;;;;23.27;4.82;;;18.80;97.40;;;;;;4247753;27;19963;-55
2023/09/28 06:58:15;;;;;;;17.55;4.78;;;18.80;97.70;;;;;;4247653;27;20047;-54
2023/09/28 07:00:17;;;;;;;31.35;5.82;;;18.90;97.00;;;;;;4247236;27;20116;-55
2023/09/28 07:02:19;;;;;;;21.05;4.88;;;18.90;96.90;;;;;;4247417;27;20047;-54
2023/09/28 07:04:22;;;;;;;18.80;4.25;;;19.00;97.00;;;;;;4247336;27;20118;-53
2023/09/28 07:06:24;;;;;;;22.73;4.80;;;19.00;97.10;;;;;;4247285;27;20042;-54
2023/09/28 07:08:28;;;;;;;17.45;4.07;;;19.00;96.90;;;;;;4247723;27;20071;-53
2023/09/28 07:10:32;;;;;;;24.88;5.63;;;19.00;96.80;;;;;;4229154;28;20079;-54
2023/09/28 07:12:34;;;;;;;24.17;4.78;;;19.00;96.80;;;;;;4247614;27;20481;-55
2023/09/28 07:14:38;;;;;;;26.07;5.73;;;19.00;96.90;;;;;;4229806;28;20035;-55
2023/09/28 07:16:40;;;;;;;26.63;5.45;;;19.00;96.70;;;;;;4247230;28;20066;-54
2023/09/28 07:18:42;;;;;;;22.17;5.38;;;19.00;96.70;;;;;;4248309;28;20039;-54
2023/09/28 07:20:46;;;;;;;26.60;5.18;;;19.00;96.80;;;;;;4252500;27;20043;-55
2023/09/28 07:22:48;;;;;;;18.95;4.55;;;19.00;96.80;;;;;;4253419;27;20043;-55
2023/09/28 07:24:53;;;;;;;21.33;5.47;;;19.00;96.50;;;;;;4252844;27;20042;-55
2023/09/28 07:26:56;;;;;;;19.10;4.38;;;19.00;96.30;;;;;;4253410;27;20046;-55
2023/09/28 07:28:58;;;;;;;22.65;4.85;;;19.10;96.60;;;;;;4252884;27;20050;-59
2023/09/28 07:31:00;;;;;;;26.35;5.45;;;19.20;96.60;;;;;;4253030;27;20131;-55
2023/09/28 07:33:03;;;;;;;24.15;5.00;;;19.20;96.50;;;;;;4252985;27;20051;-55
2023/09/28 07:35:09;;;;;;;19.15;4.43;;;19.20;96.30;;;;;;4252331;27;20071;-53
2023/09/28 07:37:13;;;;;;;23.95;5.15;;;19.30;96.10;;;;;;4253081;27;20059;-54
2023/09/28 07:39:14;;;;;;;23.85;5.70;;;19.30;96.00;;;;;;4253172;27;20047;-54
2023/09/28 07:41:18;;;;;;;23.65;5.60;;;19.40;96.10;;;;;;4252847;27;20043;-58
2023/09/28 07:43:20;;;;;;;21.40;4.93;;;19.50;95.80;;;;;;4253397;27;20118;-55
2023/09/28 07:45:22;;;;;;;26.55;5.85;;;19.50;96.00;;;;;;4253207;27;20043;-54
2023/09/28 07:47:25;;;;;;;23.45;5.88;;;19.50;96.00;;;;;;4252905;27;20070;-55
2023/09/28 07:49:27;;;;;;;22.98;5.65;;;19.50;96.00;;;;;;4234750;28;20043;-55
2023/09/28 07:51:29;;;;;;;24.10;5.68;;;19.50;96.10;;;;;;4252456;27;20128;-55
2023/09/28 07:53:31;;;;;;;38.85;6.82;;;19.60;95.90;;;;;;4253101;27;20126;-54
2023/09/28 07:55:34;;;;;;;17.77;4.93;;;19.60;95.90;;;;;;4253013;27;20040;-55
2023/09/28 07:57:39;;;;;;;26.90;6.13;;;19.60;95.60;;;;;;4253232;27;20047;-54
2023/09/28 07:59:59;;;;;;;24.67;4.97;;;19.70;95.60;;;;;;4254301;27;20103;-56
2023/09/28 08:02:01;;;;;;;26.33;5.18;;;19.60;95.70;;;;;;4256024;27;20087;-56
2023/09/28 08:04:03;;;;;;;27.95;6.40;;;19.70;95.60;;;;;;4256178;27;20055;-56
2023/09/28 08:06:05;;;;;;;30.95;6.60;;;19.70;95.60;;;;;;4255141;27;20050;-54
2023/09/28 08:08:08;;;;;;;29.83;5.38;;;19.70;95.40;;;;;;4255322;27;20092;-51
2023/09/28 08:10:17;;;;;;;27.42;6.38;;;19.80;95.40;;;;;;4255210;27;20096;-53
2023/09/28 08:12:19;;;;;;;16.25;5.43;;;19.80;95.10;;;;;;4254613;27;20039;-60
2023/09/28 08:14:23;;;;;;;24.38;5.18;;;19.80;95.50;;;;;;4255052;27;20095;-57
2023/09/28 08:16:27;;;;;;;21.20;5.55;;;19.90;95.60;;;;;;4254859;27;20053;-66
2023/09/28 08:18:29;;;;;;;24.13;6.18;;;19.90;95.40;;;;;;4254271;27;20043;-56
2023/09/28 08:20:33;;;;;;;26.88;5.72;;;20.00;95.00;;;;;;4254138;27;20047;-57
2023/09/28 08:22:37;;;;;;;20.60;5.20;;;20.00;95.30;;;;;;4253854;27;20066;-53
2023/09/28 08:24:39;;;;;;;27.67;6.47;;;20.10;95.30;;;;;;4235584;27;20069;-55
2023/09/28 08:26:44;;;;;;;21.27;5.00;;;20.10;95.10;;;;;;4252645;27;20114;-54
2023/09/28 08:28:49;;;;;;;17.63;4.55;;;20.20;95.00;;;;;;4252646;27;20050;-54
2023/09/28 08:30:56;;;;;;;25.05;5.88;;;20.20;94.40;;;;;;4252210;27;20039;-55
2023/09/28 08:32:59;;;;;;;24.90;5.72;;;20.20;94.90;;;;;;4250564;27;20075;-54
2023/09/28 08:35:04;;;;;;;19.38;5.07;;;20.20;94.90;;;;;;4250401;27;20047;-54
2023/09/28 08:37:09;;;;;;;25.15;6.20;;;20.20;94.70;;;;;;4250192;27;20467;-55
2023/09/28 08:39:12;;;;;;;22.17;5.53;;;20.10;94.60;;;;;;4250090;27;20160;-57
2023/09/28 08:41:18;;;;;;;28.20;6.80;;;20.30;94.90;;;;;;4250621;27;20081;-57
2023/09/28 08:43:21;;;;;;;22.48;5.47;;;20.40;94.40;;;;;;4250089;27;20047;-57
2023/09/28 08:45:24;;;;;;;21.80;5.82;;;20.60;94.40;;;;;;4249905;27;20127;-54
2023/09/28 08:47:32;;;;;;;19.95;5.15;;;20.60;94.10;;;;;;4232618;28;20067;-58
2023/09/28 08:49:35;;;;;;;28.50;6.20;;;20.70;94.00;;;;;;4250780;27;20043;-55
2023/09/28 08:51:41;;;;;;;24.65;5.28;;;20.70;94.20;;;;;;4249281;27;20519;-55
2023/09/28 08:53:48;;;;;;;19.85;4.43;;;20.70;93.70;;;;;;4249929;27;20046;-54
2023/09/28 08:55:50;;;;;;;16.70;4.45;;;20.80;93.50;;;;;;4249450;27;20099;-53
2023/09/28 08:57:53;;;;;;;19.40;4.18;;;20.80;93.20;;;;;;4249246;27;20088;-54
2023/09/28 08:59:57;;;;;;;29.30;5.53;;;20.80;93.50;;;;;;4249204;27;20457;-54
2023/09/28 09:02:00;;;;;;;16.02;4.28;;;20.80;93.60;;;;;;4247168;27;20043;-54
2023/09/28 09:04:05;;;;;;;18.38;4.47;;;20.90;93.60;;;;;;4249360;27;20469;-55
2023/09/28 09:06:10;;;;;;;18.08;4.70;;;21.00;93.60;;;;;;4230703;28;20055;-54
2023/09/28 09:08:14;;;;;;;15.30;3.88;;;20.90;93.30;;;;;;4249380;27;20489;-54
2023/09/28 09:10:22;;;;;;;15.27;3.80;;;21.00;93.60;;;;;;4248901;27;20401;-53
2023/09/28 09:12:24;;;;;;;14.50;3.83;;;21.00;93.90;;;;;;4249339;27;20066;-52
2023/09/28 09:14:28;;;;;;;15.75;4.72;;;21.00;93.10;;;;;;4243486;27;20039;-52
2023/09/28 09:16:30;;;;;;;15.03;3.97;;;21.10;93.10;;;;;;4219890;27;20466;-57
2023/09/28 09:18:32;;;;;;;19.27;4.00;;;21.10;93.30;;;;;;4231687;28;20462;-55
2023/09/28 09:20:36;;;;;;;23.88;4.90;;;21.10;93.20;;;;;;4240672;27;20045;-55
2023/09/28 09:22:38;;;;;;;23.15;4.70;;;21.20;93.20;;;;;;4227361;28;20047;-52
2023/09/28 09:24:59;;;;;;;13.57;4.22;;;21.10;93.40;;;;;;4242136;27;20155;-52
2023/09/28 09:27:02;;;;;;;23.30;5.72;;;21.10;93.00;;;;;;4248073;27;20087;-53
2023/09/28 09:29:04;;;;;;;22.85;4.80;;;21.10;93.30;;;;;;4241956;27;20046;-55
2023/09/28 09:31:07;;;;;;;19.52;4.13;;;21.10;92.80;;;;;;4248144;27;20145;-54
2023/09/28 09:33:10;;;;;;;17.42;4.22;;;21.00;93.10;;;;;;4246968;27;20133;-55
2023/09/28 09:35:12;;;;;;;18.80;4.30;;;20.90;93.20;;;;;;4230259;28;20055;-55
2023/09/28 09:37:16;;;;;;;16.52;4.35;;;21.00;93.30;;;;;;4248444;27;20047;-54
2023/09/28 09:39:22;;;;;;;20.65;4.85;;;20.80;93.30;;;;;;4248449;27;20441;-55
2023/09/28 09:41:24;;;;;;;20.25;5.15;;;20.80;93.40;;;;;;4248239;27;20518;-56
2023/09/28 09:43:30;;;;;;;18.90;5.13;;;20.80;93.40;;;;;;4247701;27;20063;-56
2023/09/28 09:45:36;;;;;;;20.05;4.47;;;20.70;93.60;;;;;;4247977;27;20051;-52
2023/09/28 09:47:45;;;;;;;19.85;4.93;;;20.70;93.30;;;;;;4248351;27;20047;-56
2023/09/28 09:49:49;;;;;;;24.20;4.90;;;20.60;93.40;;;;;;4246426;27;20046;-57
2023/09/28 09:51:51;;;;;;;16.83;4.90;;;20.60;93.40;;;;;;4248642;27;20050;-60
2023/09/28 09:53:55;;;;;;;13.65;3.78;;;20.60;93.30;;;;;;4249016;27;20511;-56
2023/09/28 09:55:58;;;;;;;16.25;4.57;;;20.70;93.70;;;;;;4248477;27;20103;-58
2023/09/28 09:58:04;;;;;;;16.95;4.35;;;20.70;93.60;;;;;;4247548;27;20054;-55
2023/09/28 10:00:07;;;;;;;;;;;20.70;93.50;;;;;;4248588;27;20126;-54
2023/09/28 10:02:16;;;;;;;16.20;4.40;;;20.70;93.60;;;;;;4248308;27;19919;-61
2023/09/28 10:04:19;;;;;;;20.30;4.78;;;20.70;93.50;;;;;;4239535;27;20043;-55
2023/09/28 10:06:22;;;;;;;14.75;4.32;;;20.80;93.40;;;;;;4243728;27;20055;-56
2023/09/28 10:08:27;;;;;;;18.45;4.15;;;20.80;93.20;;;;;;4248049;27;20042;-56
2023/09/28 10:10:32;;;;;;;19.13;4.03;;;20.80;92.80;;;;;;4248369;27;20042;-56
2023/09/28 10:12:34;;;;;;;16.95;4.35;;;20.90;92.70;;;;;;4247781;27;20890;-52
2023/09/28 10:14:38;;;;;;;12.57;3.30;;;21.00;92.60;;;;;;4247541;27;20038;-53
2023/09/28 10:16:41;;;;;;;19.80;4.90;;;21.10;92.90;;;;;;4246778;27;20046;-55
2023/09/28 10:18:46;;;;;;;14.05;3.83;;;21.10;92.50;;;;;;4247390;27;20042;-56
2023/09/28 10:20:49;;;;;;;16.05;3.92;;;21.10;92.50;;;;;;4246092;27;20043;-56
2023/09/28 10:22:54;;;;;;;18.98;4.60;;;21.20;92.30;;;;;;4247753;27;20409;-55
2023/09/28 10:24:56;;;;;;;24.75;8.40;;;21.30;92.20;;;;;;4247925;27;20052;-55
2023/09/28 10:27:08;;;;;;;16.98;5.18;;;21.30;92.20;;;;;;4247760;27;20077;-56
2023/09/28 10:29:12;;;;;;;20.48;4.85;;;21.40;91.80;;;;;;4247709;27;20050;-57
2023/09/28 10:31:18;;;;;;;15.65;4.07;;;21.50;92.10;;;;;;4247565;27;20050;-56
2023/09/28 10:33:21;;;;;;;13.45;5.38;;;21.60;92.00;;;;;;4247914;27;20426;-56
2023/09/28 10:35:29;;;;;;;16.73;5.07;;;21.60;92.20;;;;;;4247749;27;20438;-54
2023/09/28 10:37:37;;;;;;;16.63;5.28;;;21.70;91.60;;;;;;4246663;27;20473;-56